createdAt,value
2019-01-20T00:01:36.932Z,20.90
2019-01-20T00:04:06.583Z,21.00
2019-01-20T00:06:36.155Z,19.43
2019-01-20T00:09:08.025Z,19.93
2019-01-20T00:11:37.734Z,19.30
2019-01-20T00:14:07.438Z,19.03
2019-01-20T00:16:37.211Z,19.07
2019-01-20T00:19:06.844Z,18.80
2019-01-20T00:21:36.556Z,18.77
2019-01-20T00:24:06.257Z,17.50
2019-01-20T00:26:36.035Z,17.20
2019-01-20T00:29:06.893Z,16.80
2019-01-20T00:31:38.313Z,18.40
2019-01-20T00:34:07.960Z,21.70
2019-01-20T00:36:37.654Z,20.73
2019-01-20T00:39:08.233Z,18.97
2019-01-20T00:41:37.841Z,17.80
2019-01-20T00:44:07.471Z,19.27
2019-01-20T00:46:37.142Z,18.07
2019-01-20T00:49:06.754Z,17.40
2019-01-20T00:51:36.363Z,18.70
2019-01-20T00:54:06.140Z,17.50
2019-01-20T00:56:36.069Z,17.97
2019-01-20T00:59:05.740Z,18.97
2019-01-20T01:01:35.448Z,19.30
2019-01-20T01:04:05.353Z,17.40
2019-01-20T01:06:34.970Z,17.57
2019-01-20T01:09:06.692Z,17.13
2019-01-20T01:11:39.502Z,16.77
2019-01-20T01:14:13.573Z,17.17
2019-01-20T01:16:43.267Z,16.77
2019-01-20T01:19:12.977Z,17.50
2019-01-20T01:21:42.672Z,17.03
2019-01-20T01:24:12.275Z,16.43
2019-01-20T01:26:41.895Z,16.50
2019-01-20T01:29:11.504Z,18.77
2019-01-20T01:31:41.128Z,15.30
2019-01-20T01:34:10.841Z,17.13
2019-01-20T01:36:40.474Z,17.43
2019-01-20T01:39:10.143Z,16.13
2019-01-20T01:41:39.764Z,17.80
2019-01-20T01:44:09.864Z,17.63
2019-01-20T01:46:39.486Z,17.27
2019-01-20T01:49:09.182Z,17.40
2019-01-20T01:51:39.004Z,17.53
2019-01-20T01:54:08.703Z,18.10
2019-01-20T01:56:38.336Z,17.37
2019-01-20T01:59:08.005Z,16.40
2019-01-20T02:01:37.728Z,15.73
2019-01-20T02:04:07.327Z,17.10
2019-01-20T02:06:36.951Z,18.40
2019-01-20T02:09:07.577Z,16.60
2019-01-20T02:11:37.680Z,17.57
2019-01-20T02:14:07.275Z,18.17
2019-01-20T02:16:37.135Z,16.77
2019-01-20T02:19:06.741Z,18.87
2019-01-20T02:21:36.375Z,17.30
2019-01-20T02:24:06.567Z,18.43
2019-01-20T02:26:36.195Z,17.00
2019-01-20T02:29:06.685Z,17.00
2019-01-20T02:31:36.485Z,16.90
2019-01-20T02:34:06.161Z,17.43
2019-01-20T02:36:35.783Z,17.57
2019-01-20T02:39:06.619Z,17.53
2019-01-20T02:41:36.237Z,17.27
2019-01-20T02:44:05.900Z,17.00
2019-01-20T02:46:35.617Z,18.03
2019-01-20T02:49:05.285Z,16.87
2019-01-20T02:51:34.907Z,17.37
2019-01-20T02:54:04.505Z,17.67
2019-01-20T02:56:34.236Z,16.77
2019-01-20T02:59:03.823Z,17.50
2019-01-20T03:01:33.561Z,18.17
2019-01-20T03:04:03.227Z,17.23
2019-01-20T03:06:33.657Z,17.33
2019-01-20T03:09:06.511Z,17.43
2019-01-20T03:11:36.232Z,17.10
2019-01-20T03:14:06.002Z,15.57
2019-01-20T03:16:35.636Z,17.03
2019-01-20T03:19:05.785Z,16.67
2019-01-20T03:21:37.479Z,16.50
2019-01-20T03:24:06.862Z,16.70
2019-01-20T03:26:36.543Z,16.60
2019-01-20T03:29:06.766Z,17.43
2019-01-20T03:31:36.483Z,18.00
2019-01-20T03:34:06.108Z,21.60
2019-01-20T03:36:35.998Z,20.73
2019-01-20T03:39:06.367Z,20.23
2019-01-20T03:41:36.206Z,18.60
2019-01-20T03:44:05.887Z,18.23
2019-01-20T03:46:35.594Z,18.43
2019-01-20T03:49:05.219Z,18.07
2019-01-20T03:51:34.824Z,19.03
2019-01-20T03:54:04.788Z,19.60
2019-01-20T03:56:34.551Z,17.93
2019-01-20T03:59:05.518Z,20.10
2019-01-20T04:01:35.596Z,18.43
2019-01-20T04:04:05.292Z,19.13
2019-01-20T04:06:35.255Z,17.57
2019-01-20T04:09:07.268Z,16.60
2019-01-20T04:11:36.978Z,18.10
2019-01-20T04:14:06.769Z,18.63
2019-01-20T04:16:36.473Z,19.30
2019-01-20T04:19:06.111Z,17.47
2019-01-20T04:21:35.821Z,16.50
2019-01-20T04:24:05.508Z,17.13
2019-01-20T04:26:35.112Z,18.00
2019-01-20T04:29:04.904Z,18.07
2019-01-20T04:31:34.560Z,17.57
2019-01-20T04:34:04.366Z,17.93
2019-01-20T04:36:34.478Z,17.37
2019-01-20T04:39:06.213Z,16.23
2019-01-20T04:41:35.873Z,18.40
2019-01-20T04:44:05.568Z,19.50
2019-01-20T04:46:35.182Z,18.73
2019-01-20T04:49:04.990Z,18.50
2019-01-20T04:51:34.589Z,18.67
2019-01-20T04:54:05.021Z,17.70
2019-01-20T04:56:34.823Z,16.77
2019-01-20T04:59:04.444Z,18.73
2019-01-20T05:01:35.348Z,15.60
2019-01-20T05:04:05.185Z,16.97
2019-01-20T05:06:34.779Z,18.67
2019-01-20T05:09:06.418Z,19.40
2019-01-20T05:11:38.331Z,18.03
2019-01-20T05:14:07.969Z,19.67
2019-01-20T05:16:37.573Z,18.77
2019-01-20T05:19:07.204Z,19.23
2019-01-20T05:21:36.906Z,19.90
2019-01-20T05:24:06.525Z,18.97
2019-01-20T05:26:36.223Z,18.43
2019-01-20T05:29:05.852Z,19.53
2019-01-20T05:31:35.556Z,17.53
2019-01-20T05:34:05.252Z,18.30
2019-01-20T05:36:34.850Z,18.90
2019-01-20T05:39:06.690Z,18.30
2019-01-20T05:41:36.283Z,18.20
2019-01-20T05:44:06.009Z,19.80
2019-01-20T05:46:35.615Z,20.37
2019-01-20T05:49:05.382Z,19.23
2019-01-20T05:51:35.112Z,17.70
2019-01-20T05:54:06.227Z,18.47
2019-01-20T05:56:36.011Z,18.20
2019-01-20T05:59:05.731Z,18.80
2019-01-20T06:01:35.337Z,18.20
2019-01-20T06:04:05.975Z,17.47
2019-01-20T06:06:35.647Z,16.10
2019-01-20T06:09:07.113Z,17.73
2019-01-20T06:11:37.069Z,19.50
2019-01-20T06:14:06.756Z,18.67
2019-01-20T06:16:36.366Z,13.27
2019-01-20T06:19:06.206Z,18.77
2019-01-20T06:21:35.936Z,17.20
2019-01-20T06:24:05.575Z,18.53
2019-01-20T06:26:35.418Z,16.60
2019-01-20T06:29:05.365Z,17.60
2019-01-20T06:31:35.063Z,18.07
2019-01-20T06:34:04.688Z,18.87
2019-01-20T06:36:34.355Z,17.60
2019-01-20T06:39:06.424Z,17.20
2019-01-20T06:41:36.121Z,16.80
2019-01-20T06:44:05.820Z,17.67
2019-01-20T06:46:35.416Z,16.77
2019-01-20T06:49:05.133Z,17.90
2019-01-20T06:51:34.725Z,15.83
2019-01-20T06:54:04.928Z,17.17
2019-01-20T06:56:34.529Z,17.53
2019-01-20T06:59:04.593Z,17.27
2019-01-20T07:01:34.368Z,16.90
2019-01-20T07:04:04.172Z,17.50
2019-01-20T07:06:33.782Z,15.97
2019-01-20T07:09:05.071Z,18.00
2019-01-20T07:11:34.667Z,16.67
2019-01-20T07:14:04.438Z,16.23
2019-01-20T07:16:34.271Z,15.47
2019-01-20T07:19:03.890Z,15.60
2019-01-20T07:21:33.501Z,15.07
2019-01-20T07:24:03.121Z,15.63
2019-01-20T07:26:32.719Z,16.37
2019-01-20T07:29:02.355Z,17.87
2019-01-20T07:31:31.971Z,17.00
2019-01-20T07:34:01.784Z,17.30
2019-01-20T07:36:31.408Z,17.60
2019-01-20T07:39:01.087Z,18.03
2019-01-20T07:41:30.708Z,18.30
2019-01-20T07:44:00.388Z,17.13
2019-01-20T07:46:30.665Z,17.60
2019-01-20T07:49:00.477Z,18.03
2019-01-20T07:51:30.130Z,16.83
2019-01-20T07:53:59.823Z,18.70
2019-01-20T07:56:29.442Z,20.73
2019-01-20T07:58:59.034Z,22.07
2019-01-20T08:01:28.769Z,19.70
2019-01-20T08:03:58.366Z,17.87
2019-01-20T08:06:28.082Z,17.97
2019-01-20T08:08:57.692Z,18.03
2019-01-20T08:11:27.495Z,18.70
2019-01-20T08:13:57.079Z,16.17
2019-01-20T08:16:26.815Z,18.47
2019-01-20T08:18:56.483Z,18.43
2019-01-20T08:21:26.203Z,18.67
2019-01-20T08:23:55.980Z,18.50
2019-01-20T08:26:25.603Z,18.63
2019-01-20T08:28:55.199Z,18.33
2019-01-20T08:31:24.921Z,19.13
2019-01-20T08:33:54.522Z,18.13
2019-01-20T08:36:24.144Z,19.60
2019-01-20T08:38:53.739Z,17.87
2019-01-20T08:41:23.864Z,17.40
2019-01-20T08:43:53.461Z,17.40
2019-01-20T08:46:27.176Z,16.77
2019-01-20T08:48:56.881Z,16.13
2019-01-20T08:51:26.574Z,16.67
2019-01-20T08:53:56.329Z,18.13
2019-01-20T08:56:25.947Z,17.30
2019-01-20T08:58:55.649Z,17.37
2019-01-20T09:01:25.274Z,18.83
2019-01-20T09:03:55.185Z,18.33
2019-01-20T09:06:24.815Z,17.97
2019-01-20T09:08:54.524Z,17.97
2019-01-20T09:11:24.153Z,17.87
2019-01-20T09:13:53.752Z,18.43
2019-01-20T09:16:23.375Z,17.77
2019-01-20T09:18:52.967Z,17.83
2019-01-20T09:21:22.785Z,18.00
2019-01-20T09:23:52.395Z,16.73
2019-01-20T09:26:22.065Z,16.93
2019-01-20T09:28:51.684Z,17.43
2019-01-20T09:31:21.423Z,17.37
2019-01-20T09:33:51.052Z,17.63
2019-01-20T09:36:21.423Z,17.77
2019-01-20T09:38:51.052Z,17.70
2019-01-20T09:41:20.758Z,18.20
2019-01-20T09:43:50.391Z,18.87
2019-01-20T09:46:20.006Z,18.50
2019-01-20T09:48:49.736Z,17.07
2019-01-20T09:51:19.331Z,18.50
2019-01-20T09:53:49.025Z,17.67
2019-01-20T09:56:18.708Z,18.90
2019-01-20T09:58:48.328Z,16.63
2019-01-20T10:01:18.040Z,18.80
2019-01-20T10:03:48.576Z,19.40
2019-01-20T10:06:18.179Z,17.80
2019-01-20T10:08:47.916Z,17.43
2019-01-20T10:11:17.655Z,16.73
2019-01-20T10:13:54.636Z,19.53
2019-01-20T10:16:18.494Z,18.80
2019-01-20T10:18:48.120Z,18.50
2019-01-20T10:21:17.725Z,19.20
2019-01-20T10:23:47.352Z,17.27
2019-01-20T10:26:16.956Z,17.60
2019-01-20T10:28:46.580Z,19.03
2019-01-20T10:31:16.203Z,18.60
2019-01-20T10:33:46.028Z,18.63
2019-01-20T10:36:15.831Z,19.43
2019-01-20T10:38:45.469Z,18.23
2019-01-20T10:41:15.144Z,15.93
2019-01-20T10:43:44.991Z,16.27
2019-01-20T10:46:14.592Z,18.47
2019-01-20T10:48:44.333Z,19.50
2019-01-20T10:51:14.002Z,19.60
2019-01-20T10:53:43.929Z,19.90
2019-01-20T10:56:13.544Z,21.17
2019-01-20T10:58:43.271Z,21.47
2019-01-20T11:01:12.944Z,19.37
2019-01-20T11:03:42.575Z,21.33
2019-01-20T11:06:12.180Z,21.00
2019-01-20T11:08:41.804Z,20.40
2019-01-20T11:11:11.407Z,20.17
2019-01-20T11:13:41.041Z,21.00
2019-01-20T11:16:10.913Z,20.77
2019-01-20T11:18:40.747Z,21.17
2019-01-20T11:21:10.646Z,21.20
2019-01-20T11:23:40.728Z,18.80
2019-01-20T11:26:10.507Z,21.37
2019-01-20T11:28:40.249Z,22.10
2019-01-20T11:31:09.848Z,22.07
2019-01-20T11:33:39.566Z,22.10
2019-01-20T11:36:09.253Z,23.43
2019-01-20T11:38:38.872Z,23.00
2019-01-20T11:41:08.683Z,23.07
2019-01-20T11:43:38.351Z,22.73
2019-01-20T11:46:07.924Z,22.03
2019-01-20T11:48:37.671Z,23.07
2019-01-20T11:51:07.336Z,22.97
2019-01-20T11:53:41.014Z,22.60
2019-01-20T11:56:10.685Z,25.23
2019-01-20T11:58:40.310Z,23.30
2019-01-20T12:01:10.124Z,23.80
2019-01-20T12:03:39.751Z,23.70
2019-01-20T12:06:09.600Z,24.60
2019-01-20T12:08:39.391Z,24.10
2019-01-20T12:11:09.001Z,23.40
2019-01-20T12:13:38.736Z,23.60
2019-01-20T12:16:08.528Z,24.93
2019-01-20T12:18:38.169Z,24.53
2019-01-20T12:21:07.833Z,23.73
2019-01-20T12:23:38.287Z,24.03
2019-01-20T12:26:07.901Z,24.13
2019-01-20T12:28:37.519Z,23.53
2019-01-20T12:31:07.119Z,24.93
2019-01-20T12:33:36.816Z,24.80
2019-01-20T12:36:06.377Z,24.23
2019-01-20T12:38:36.004Z,24.47
2019-01-20T12:41:05.725Z,24.77
2019-01-20T12:43:35.352Z,24.10
2019-01-20T12:46:04.973Z,24.40
2019-01-20T12:48:34.589Z,25.03
2019-01-20T12:51:04.331Z,25.03
2019-01-20T12:53:34.037Z,25.03
2019-01-20T12:56:03.791Z,23.50
2019-01-20T12:58:33.412Z,24.63
2019-01-20T13:01:03.089Z,23.80
2019-01-20T13:03:33.166Z,25.37
2019-01-20T13:06:03.100Z,25.57
2019-01-20T13:08:32.733Z,24.97
2019-01-20T13:11:02.410Z,25.43
2019-01-20T13:13:32.099Z,25.90
2019-01-20T13:16:01.768Z,24.57
2019-01-20T13:18:31.397Z,26.53
2019-01-20T13:21:01.173Z,25.37
2019-01-20T13:23:30.803Z,25.87
2019-01-20T13:26:00.448Z,25.40
2019-01-20T13:28:30.077Z,25.90
2019-01-20T13:30:59.675Z,26.13
2019-01-20T13:33:29.312Z,28.47
2019-01-20T13:35:58.911Z,27.50
2019-01-20T13:38:28.545Z,27.20
2019-01-20T13:40:58.683Z,26.00
2019-01-20T13:43:29.128Z,25.77
2019-01-20T13:45:58.729Z,25.73
2019-01-20T13:48:30.112Z,25.83
2019-01-20T13:50:59.715Z,25.83
2019-01-20T13:53:29.639Z,25.77
2019-01-20T13:56:01.332Z,25.27
2019-01-20T13:58:30.624Z,26.20
2019-01-20T14:01:00.252Z,26.37
2019-01-20T14:03:29.860Z,25.50
2019-01-20T14:05:59.471Z,25.70
2019-01-20T14:08:29.168Z,25.90
2019-01-20T14:10:58.935Z,25.97
2019-01-20T14:13:28.496Z,25.30
2019-01-20T14:15:58.178Z,26.93
2019-01-20T14:18:28.360Z,29.07
2019-01-20T14:20:59.486Z,28.90
2019-01-20T14:23:29.279Z,28.50
2019-01-20T14:25:59.047Z,26.13
2019-01-20T14:28:28.923Z,27.20
2019-01-20T14:30:58.653Z,28.70
2019-01-20T14:33:28.260Z,27.10
2019-01-20T14:35:57.966Z,27.10
2019-01-20T14:38:27.591Z,27.50
2019-01-20T14:40:58.232Z,28.03
2019-01-20T14:43:27.964Z,27.47
2019-01-20T14:45:57.533Z,27.20
2019-01-20T14:48:27.208Z,27.53
2019-01-20T14:50:56.840Z,27.63
2019-01-20T14:53:26.553Z,27.10
2019-01-20T14:55:56.166Z,26.73
2019-01-20T14:58:25.777Z,26.73
2019-01-20T15:00:55.894Z,27.53
2019-01-20T15:03:25.512Z,26.47
2019-01-20T15:05:55.145Z,29.07
2019-01-20T15:08:24.835Z,28.07
2019-01-20T15:10:54.471Z,28.23
2019-01-20T15:13:24.079Z,25.60
2019-01-20T15:15:53.696Z,28.43
2019-01-20T15:18:23.295Z,29.43
2019-01-20T15:20:52.920Z,27.43
2019-01-20T15:23:22.549Z,30.13
2019-01-20T15:25:52.278Z,29.37
2019-01-20T15:28:21.875Z,29.40
2019-01-20T15:30:51.500Z,28.43
2019-01-20T15:33:21.167Z,29.20
2019-01-20T15:35:50.796Z,29.50
2019-01-20T15:38:20.440Z,29.67
2019-01-20T15:40:50.124Z,29.03
2019-01-20T15:43:19.736Z,27.70
2019-01-20T15:45:49.386Z,30.33
2019-01-20T15:48:18.994Z,29.37
2019-01-20T15:50:48.647Z,30.70
2019-01-20T15:53:18.268Z,28.90
2019-01-20T15:55:47.899Z,27.93
2019-01-20T15:58:17.505Z,30.10
2019-01-20T16:00:47.196Z,29.27
2019-01-20T16:03:16.809Z,29.40
2019-01-20T16:05:46.729Z,29.67
2019-01-20T16:08:16.337Z,30.30
2019-01-20T16:10:45.971Z,28.50
2019-01-20T16:13:15.679Z,27.93
2019-01-20T16:15:45.410Z,31.97
2019-01-20T16:18:15.040Z,30.93
2019-01-20T16:20:45.070Z,30.27
2019-01-20T16:23:14.677Z,28.17
2019-01-20T16:25:44.311Z,29.30
2019-01-20T16:28:13.926Z,30.83
2019-01-20T16:30:43.559Z,29.27
2019-01-20T16:33:13.160Z,28.73
2019-01-20T16:35:42.864Z,30.53
2019-01-20T16:38:12.550Z,28.90
2019-01-20T16:40:42.189Z,30.63
2019-01-20T16:43:11.788Z,29.50
2019-01-20T16:45:42.430Z,30.23
2019-01-20T16:48:12.372Z,29.67
2019-01-20T16:50:42.131Z,30.60
2019-01-20T16:53:11.912Z,29.53
2019-01-20T16:55:41.693Z,33.10
2019-01-20T16:58:11.471Z,32.67
2019-01-20T17:00:41.646Z,32.17
2019-01-20T17:03:11.322Z,31.30
2019-01-20T17:05:41.016Z,31.30
2019-01-20T17:08:10.698Z,30.13
2019-01-20T17:10:41.103Z,29.63
2019-01-20T17:13:10.948Z,31.47
2019-01-20T17:15:42.514Z,31.07
2019-01-20T17:18:12.721Z,31.90
2019-01-20T17:20:42.444Z,31.60
2019-01-20T17:23:12.116Z,31.80
2019-01-20T17:25:41.884Z,31.47
2019-01-20T17:28:11.664Z,30.93
2019-01-20T17:30:41.737Z,31.73
2019-01-20T17:33:11.675Z,32.23
2019-01-20T17:35:41.290Z,30.10
2019-01-20T17:38:10.970Z,33.80
2019-01-20T17:40:40.649Z,31.77
2019-01-20T17:43:10.593Z,32.00
2019-01-20T17:45:47.537Z,30.13
2019-01-20T17:48:13.565Z,32.07
2019-01-20T17:50:43.880Z,37.67
2019-01-20T17:53:13.889Z,41.03
2019-01-20T17:55:43.638Z,33.33
2019-01-20T17:58:13.325Z,32.40
2019-01-20T18:00:44.695Z,31.80
2019-01-20T18:03:14.487Z,31.60
2019-01-20T18:05:44.580Z,30.40
2019-01-20T18:08:14.219Z,30.67
2019-01-20T18:10:44.556Z,29.90
2019-01-20T18:13:15.652Z,30.97
2019-01-20T18:15:45.431Z,30.33
2019-01-20T18:18:15.130Z,30.87
2019-01-20T18:20:44.800Z,28.57
2019-01-20T18:23:14.435Z,29.70
2019-01-20T18:25:44.123Z,28.53
2019-01-20T18:28:13.754Z,28.43
2019-01-20T18:30:43.452Z,26.03
2019-01-20T18:33:16.035Z,28.67
2019-01-20T18:35:45.714Z,27.67
2019-01-20T18:38:15.424Z,22.90
2019-01-20T18:40:45.222Z,26.60
2019-01-20T18:43:14.815Z,28.80
2019-01-20T18:45:44.492Z,31.00
2019-01-20T18:48:14.215Z,29.77
2019-01-20T18:50:44.659Z,29.70
2019-01-20T18:53:14.416Z,28.37
2019-01-20T18:55:44.116Z,27.27
2019-01-20T18:58:14.331Z,27.87
2019-01-20T19:00:46.477Z,28.00
2019-01-20T19:03:16.106Z,29.43
2019-01-20T19:05:47.756Z,28.70
2019-01-20T19:08:18.092Z,27.17
2019-01-20T19:10:49.793Z,25.00
2019-01-20T19:13:19.765Z,25.67
2019-01-20T19:15:49.763Z,27.37
2019-01-20T19:18:19.782Z,27.20
2019-01-20T19:20:49.606Z,24.83
2019-01-20T19:23:19.291Z,25.00
2019-01-20T19:25:49.095Z,27.37
2019-01-20T19:28:18.914Z,25.33
2019-01-20T19:30:48.718Z,26.10
2019-01-20T19:33:18.340Z,26.80
2019-01-20T19:35:48.037Z,26.87
2019-01-20T19:38:17.724Z,24.90
2019-01-20T19:40:47.333Z,23.87
2019-01-20T19:43:17.075Z,25.87
2019-01-20T19:45:46.674Z,25.73
2019-01-20T19:48:20.280Z,26.07
2019-01-20T19:50:49.257Z,25.53
2019-01-20T19:53:19.235Z,27.27
2019-01-20T19:55:48.865Z,26.77
2019-01-20T19:58:18.463Z,27.33
2019-01-20T20:00:48.163Z,28.37
2019-01-20T20:03:17.832Z,25.73
2019-01-20T20:05:47.548Z,28.20
2019-01-20T20:08:17.142Z,25.77
2019-01-20T20:10:47.770Z,25.60
2019-01-20T20:13:17.291Z,27.80
2019-01-20T20:15:46.923Z,26.40
2019-01-20T20:18:16.587Z,25.43
2019-01-20T20:20:46.308Z,26.33
2019-01-20T20:23:15.963Z,26.67
2019-01-20T20:25:45.588Z,26.83
2019-01-20T20:28:15.285Z,27.27
2019-01-20T20:30:44.917Z,25.83
2019-01-20T20:33:14.533Z,26.83
2019-01-20T20:35:44.155Z,28.40
2019-01-20T20:38:13.753Z,27.60
2019-01-20T20:40:43.575Z,27.30
2019-01-20T20:43:13.186Z,26.90
2019-01-20T20:45:43.385Z,29.47
2019-01-20T20:48:13.051Z,30.90
2019-01-20T20:50:42.690Z,28.37
2019-01-20T20:53:13.731Z,30.70
2019-01-20T20:55:43.365Z,30.77
2019-01-20T20:58:13.040Z,30.47
2019-01-20T21:00:42.733Z,29.87
2019-01-20T21:03:12.675Z,29.63
2019-01-20T21:05:42.322Z,32.00
2019-01-20T21:08:11.928Z,30.57
2019-01-20T21:10:41.736Z,30.60
2019-01-20T21:13:11.399Z,31.27
2019-01-20T21:15:41.109Z,30.60
2019-01-20T21:18:10.784Z,32.43
2019-01-20T21:20:40.428Z,30.00
2019-01-20T21:23:12.346Z,27.57
2019-01-20T21:25:41.271Z,27.73
2019-01-20T21:28:10.877Z,29.60
2019-01-20T21:30:40.521Z,29.63
2019-01-20T21:33:10.107Z,29.70
2019-01-20T21:35:39.728Z,29.30
2019-01-20T21:38:09.665Z,29.47
2019-01-20T21:40:39.278Z,29.50
2019-01-20T21:43:08.975Z,30.10
2019-01-20T21:45:38.663Z,29.80
2019-01-20T21:48:08.268Z,30.57
2019-01-20T21:50:37.986Z,29.40
2019-01-20T21:53:07.591Z,29.73
2019-01-20T21:55:37.209Z,27.90
2019-01-20T21:58:06.808Z,28.97
2019-01-20T22:00:36.692Z,29.47
2019-01-20T22:03:06.396Z,28.33
2019-01-20T22:05:36.216Z,25.93
2019-01-20T22:08:05.815Z,27.07
2019-01-20T22:10:35.444Z,25.40
2019-01-20T22:13:05.181Z,27.03
2019-01-20T22:15:34.867Z,27.97
2019-01-20T22:18:04.536Z,25.67
2019-01-20T22:20:34.164Z,26.80
2019-01-20T22:23:03.774Z,23.17
2019-01-20T22:25:33.504Z,23.73
2019-01-20T22:28:03.099Z,24.73
2019-01-20T22:30:32.738Z,24.30
2019-01-20T22:33:02.323Z,22.93
2019-01-20T22:35:32.039Z,22.50
2019-01-20T22:38:01.641Z,23.07
2019-01-20T22:40:31.254Z,22.57
2019-01-20T22:43:00.859Z,19.73
2019-01-20T22:45:37.455Z,20.93
2019-01-20T22:48:07.055Z,22.00
2019-01-20T22:50:36.677Z,22.80
2019-01-20T22:53:06.288Z,19.07
2019-01-20T22:55:35.908Z,22.13
2019-01-20T22:58:05.761Z,21.77
2019-01-20T23:00:51.890Z,22.00
2019-01-20T23:03:21.559Z,21.17
2019-01-20T23:05:51.349Z,22.33
2019-01-20T23:08:21.183Z,21.03
2019-01-20T23:10:50.875Z,22.93
2019-01-20T23:13:20.991Z,21.70
2019-01-20T23:15:50.806Z,21.27
2019-01-20T23:18:20.596Z,21.10
2019-01-20T23:20:50.381Z,21.93
2019-01-20T23:23:19.985Z,20.00
2019-01-20T23:25:50.405Z,21.13
2019-01-20T23:28:20.008Z,21.93
2019-01-20T23:30:49.702Z,21.13
2019-01-20T23:33:19.308Z,20.83
2019-01-20T23:35:49.802Z,20.77
2019-01-20T23:38:19.499Z,21.17
2019-01-20T23:40:49.117Z,20.10
2019-01-20T23:43:18.760Z,20.27
2019-01-20T23:45:48.405Z,20.63
2019-01-20T23:48:18.009Z,19.90
2019-01-20T23:50:47.728Z,19.43
2019-01-20T23:53:17.433Z,20.13
2019-01-20T23:55:47.160Z,19.90
2019-01-20T23:58:16.755Z,20.27
